createdAt,value
2019-05-19T00:00:50.242Z,17.37
2019-05-19T00:01:55.629Z,19.25
2019-05-19T00:03:01.243Z,17.48
2019-05-19T00:04:06.706Z,17.92
2019-05-19T00:05:12.523Z,18.45
2019-05-19T00:06:17.843Z,18.62
2019-05-19T00:07:23.620Z,18.85
2019-05-19T00:08:28.922Z,18.80
2019-05-19T00:09:34.047Z,18.65
2019-05-19T00:10:40.086Z,19.55
2019-05-19T00:11:45.238Z,18.73
2019-05-19T00:12:50.632Z,18.90
2019-05-19T00:13:56.048Z,18.77
2019-05-19T00:15:01.676Z,19.80
2019-05-19T00:16:06.897Z,20.30
2019-05-19T00:17:12.370Z,19.85
2019-05-19T00:18:17.472Z,21.25
2019-05-19T00:19:26.767Z,21.27
2019-05-19T00:20:30.115Z,20.05
2019-05-19T00:21:35.501Z,19.57
2019-05-19T00:22:40.748Z,18.85
2019-05-19T00:23:46.097Z,19.35
2019-05-19T00:24:51.335Z,19.90
2019-05-19T00:25:56.974Z,18.52
2019-05-19T00:27:02.180Z,18.98
2019-05-19T00:28:07.665Z,20.92
2019-05-19T00:29:12.865Z,21.23
2019-05-19T00:30:18.396Z,21.40
2019-05-19T00:31:24.053Z,20.62
2019-05-19T00:32:29.387Z,20.37
2019-05-19T00:33:35.357Z,20.90
2019-05-19T00:34:41.258Z,22.42
2019-05-19T00:35:46.441Z,22.15
2019-05-19T00:36:51.755Z,22.25
2019-05-19T00:37:57.434Z,22.10
2019-05-19T00:39:02.722Z,22.07
2019-05-19T00:40:08.487Z,22.50
2019-05-19T00:41:13.923Z,21.95
2019-05-19T00:42:19.529Z,23.65
2019-05-19T00:43:25.199Z,23.52
2019-05-19T00:44:31.110Z,24.02
2019-05-19T00:45:36.572Z,23.85
2019-05-19T00:46:41.875Z,24.00
2019-05-19T00:47:47.255Z,26.02
2019-05-19T00:48:52.915Z,27.45
2019-05-19T00:49:58.243Z,27.70
2019-05-19T00:51:03.532Z,26.97
2019-05-19T00:52:08.816Z,28.20
2019-05-19T00:53:14.408Z,30.62
2019-05-19T00:54:20.282Z,30.08
2019-05-19T00:55:25.629Z,29.55
2019-05-19T00:56:31.507Z,31.82
2019-05-19T00:57:38.266Z,30.15
2019-05-19T00:58:45.527Z,30.85
2019-05-19T00:59:52.210Z,32.10
2019-05-19T01:00:57.891Z,34.18
2019-05-19T01:02:03.489Z,35.50
2019-05-19T01:03:08.842Z,35.90
2019-05-19T01:04:14.058Z,35.50
2019-05-19T01:05:20.797Z,37.35
2019-05-19T01:06:26.041Z,37.17
2019-05-19T01:07:32.071Z,36.15
2019-05-19T01:08:37.209Z,38.65
2019-05-19T01:09:42.664Z,36.85
2019-05-19T01:10:48.191Z,38.02
2019-05-19T01:11:53.908Z,36.68
2019-05-19T01:12:59.126Z,38.53
2019-05-19T01:14:04.883Z,38.83
2019-05-19T01:15:11.146Z,39.78
2019-05-19T01:16:17.177Z,39.53
2019-05-19T01:17:22.675Z,41.23
2019-05-19T01:18:28.266Z,39.13
2019-05-19T01:19:33.929Z,40.15
2019-05-19T01:20:39.455Z,41.63
2019-05-19T01:21:45.594Z,39.58
2019-05-19T01:22:51.078Z,40.00
2019-05-19T01:23:56.967Z,40.20
2019-05-19T01:25:02.296Z,41.00
2019-05-19T01:26:07.531Z,41.95
2019-05-19T01:27:12.953Z,40.38
2019-05-19T01:28:18.380Z,42.17
2019-05-19T01:29:23.713Z,41.37
2019-05-19T01:30:28.944Z,39.90
2019-05-19T01:31:36.429Z,38.80
2019-05-19T01:32:41.923Z,40.17
2019-05-19T01:33:47.233Z,40.43
2019-05-19T01:34:52.679Z,39.10
2019-05-19T01:35:58.264Z,40.30
2019-05-19T01:37:03.410Z,42.25
2019-05-19T01:38:08.744Z,40.58
2019-05-19T01:39:13.961Z,39.25
2019-05-19T01:40:19.632Z,40.33
2019-05-19T01:41:24.789Z,40.30
2019-05-19T01:42:30.099Z,39.75
2019-05-19T01:43:35.334Z,41.53
2019-05-19T01:44:40.981Z,38.05
2019-05-19T01:45:46.188Z,40.28
2019-05-19T01:46:51.494Z,41.77
2019-05-19T01:47:56.969Z,41.35
2019-05-19T01:49:02.348Z,41.35
2019-05-19T01:50:17.405Z,41.73
2019-05-19T01:51:15.271Z,39.92
2019-05-19T01:52:20.500Z,41.73
2019-05-19T01:53:25.921Z,41.28
2019-05-19T01:54:31.184Z,41.13
2019-05-19T01:55:36.860Z,42.15
2019-05-19T01:56:42.658Z,41.92
2019-05-19T01:57:48.303Z,40.20
2019-05-19T01:58:53.433Z,41.73
2019-05-19T01:59:58.833Z,41.05
2019-05-19T02:01:04.135Z,41.35
2019-05-19T02:02:09.574Z,39.27
2019-05-19T02:03:14.781Z,40.75
2019-05-19T02:04:20.086Z,40.23
2019-05-19T02:05:25.233Z,39.63
2019-05-19T02:06:30.568Z,40.38
2019-05-19T02:07:35.880Z,41.60
2019-05-19T02:08:41.284Z,39.80
2019-05-19T02:09:46.553Z,37.20
2019-05-19T02:10:52.241Z,40.80
2019-05-19T02:11:57.734Z,40.90
2019-05-19T02:13:05.176Z,39.80
2019-05-19T02:14:10.005Z,39.75
2019-05-19T02:15:16.999Z,39.67
2019-05-19T02:16:22.109Z,40.52
2019-05-19T02:17:27.422Z,39.38
2019-05-19T02:18:35.415Z,39.25
2019-05-19T02:19:41.257Z,40.38
2019-05-19T02:20:47.640Z,39.38
2019-05-19T02:21:53.347Z,38.60
2019-05-19T02:22:58.543Z,40.05
2019-05-19T02:24:04.020Z,39.20
2019-05-19T02:25:09.639Z,39.45
2019-05-19T02:26:14.962Z,39.45
2019-05-19T02:27:20.075Z,40.45
2019-05-19T02:28:25.454Z,38.98
2019-05-19T02:29:30.878Z,39.75
2019-05-19T02:30:36.390Z,40.50
2019-05-19T02:31:41.612Z,42.27
2019-05-19T02:32:46.910Z,41.58
2019-05-19T02:33:52.333Z,40.12
2019-05-19T02:34:57.898Z,40.50
2019-05-19T02:36:03.090Z,39.73
2019-05-19T02:37:08.750Z,40.58
2019-05-19T02:38:14.289Z,41.05
2019-05-19T02:39:20.212Z,41.08
2019-05-19T02:40:25.600Z,41.10
2019-05-19T02:41:32.857Z,41.28
2019-05-19T02:42:41.590Z,41.90
2019-05-19T02:43:48.302Z,41.50
2019-05-19T02:44:54.003Z,41.60
2019-05-19T02:46:02.209Z,40.78
2019-05-19T02:47:09.295Z,40.78
2019-05-19T02:48:15.190Z,40.73
2019-05-19T02:49:23.365Z,41.77
2019-05-19T02:50:30.800Z,43.10
2019-05-19T02:51:36.723Z,44.05
2019-05-19T02:52:44.628Z,42.33
2019-05-19T02:53:50.741Z,41.58
2019-05-19T02:54:56.764Z,42.43
2019-05-19T02:56:05.113Z,42.88
2019-05-19T02:57:10.512Z,43.68
2019-05-19T02:58:17.042Z,42.62
2019-05-19T02:59:23.207Z,42.33
2019-05-19T03:00:38.868Z,43.17
2019-05-19T03:02:21.434Z,43.33
2019-05-19T03:03:26.400Z,41.35
2019-05-19T03:04:32.565Z,42.03
2019-05-19T03:05:38.244Z,44.53
2019-05-19T03:06:43.796Z,43.02
2019-05-19T03:07:48.722Z,42.27
2019-05-19T03:08:54.210Z,42.88
2019-05-19T03:09:59.452Z,44.98
2019-05-19T03:11:05.270Z,44.50
2019-05-19T03:12:10.598Z,43.60
2019-05-19T03:13:16.183Z,45.98
2019-05-19T03:14:21.126Z,42.43
2019-05-19T03:15:26.626Z,45.85
2019-05-19T03:16:31.874Z,44.90
2019-05-19T03:17:37.920Z,45.12
2019-05-19T03:18:42.928Z,44.83
2019-05-19T03:19:48.414Z,44.58
2019-05-19T03:21:09.902Z,44.70
2019-05-19T03:22:01.083Z,44.27
2019-05-19T03:23:06.037Z,42.38
2019-05-19T03:24:13.289Z,44.75
2019-05-19T03:25:18.656Z,43.20
2019-05-19T03:47:05.264Z,45.20
2019-05-19T03:48:11.058Z,46.80
2019-05-19T03:49:16.299Z,45.05
2019-05-19T03:50:21.877Z,44.45
2019-05-19T03:51:31.346Z,44.90
2019-05-19T03:52:34.633Z,46.33
2019-05-19T03:53:39.885Z,44.63
2019-05-19T03:54:45.458Z,45.90
2019-05-19T03:55:50.913Z,43.98
2019-05-19T03:56:56.691Z,45.58
2019-05-19T03:58:01.662Z,46.30
2019-05-19T03:59:07.151Z,48.45
2019-05-19T04:00:13.428Z,44.63
2019-05-19T04:01:19.150Z,45.12
2019-05-19T04:02:24.101Z,46.58
2019-05-19T04:03:29.618Z,46.08
2019-05-19T04:04:34.576Z,46.73
2019-05-19T04:05:40.209Z,44.63
2019-05-19T04:06:45.164Z,46.05
2019-05-19T04:07:51.016Z,47.90
2019-05-19T04:08:56.283Z,46.10
2019-05-19T04:10:02.202Z,45.45
2019-05-19T04:11:10.378Z,45.28
2019-05-19T04:12:16.133Z,46.13
2019-05-19T04:13:21.450Z,45.98
2019-05-19T04:14:27.247Z,48.78
2019-05-19T04:15:32.854Z,46.40
2019-05-19T04:16:38.617Z,48.58
2019-05-19T04:17:43.795Z,46.68
2019-05-19T04:18:49.369Z,45.43
2019-05-19T04:19:54.374Z,46.33
2019-05-19T04:21:00.182Z,48.42
2019-05-19T04:22:05.180Z,47.00
2019-05-19T04:23:10.760Z,46.28
2019-05-19T04:24:15.926Z,46.73
2019-05-19T04:25:22.044Z,46.10
2019-05-19T04:26:26.983Z,45.80
2019-05-19T04:27:32.501Z,47.75
2019-05-19T04:28:37.449Z,46.53
2019-05-19T04:29:43.070Z,43.85
2019-05-19T04:30:48.438Z,46.60
2019-05-19T04:31:53.945Z,45.75
2019-05-19T04:32:59.127Z,47.17
2019-05-19T04:34:04.781Z,47.30
2019-05-19T04:35:09.870Z,48.20
2019-05-19T04:36:15.391Z,48.60
2019-05-19T04:37:20.390Z,46.80
2019-05-19T04:38:25.884Z,50.75
2019-05-19T04:39:30.898Z,47.65
2019-05-19T04:40:36.643Z,45.03
2019-05-19T04:41:41.603Z,48.58
2019-05-19T04:42:47.377Z,46.68
2019-05-19T04:43:52.358Z,46.02
2019-05-19T04:44:58.162Z,45.70
2019-05-19T04:46:03.122Z,44.30
2019-05-19T04:47:08.649Z,46.15
2019-05-19T04:48:13.694Z,44.50
2019-05-19T04:49:19.222Z,43.23
2019-05-19T04:50:24.334Z,43.28
2019-05-19T04:51:29.907Z,42.58
2019-05-19T04:52:35.695Z,41.37
2019-05-19T04:53:41.499Z,43.20
2019-05-19T04:54:46.686Z,41.23
2019-05-19T04:55:52.470Z,41.63
2019-05-19T04:56:57.393Z,40.03
2019-05-19T04:58:04.326Z,41.95
2019-05-19T04:59:09.176Z,42.50
2019-05-19T05:00:15.649Z,40.28
2019-05-19T05:01:20.791Z,41.58
2019-05-19T05:02:26.338Z,43.83
2019-05-19T05:03:31.532Z,40.33
2019-05-19T05:04:37.365Z,41.70
2019-05-19T05:05:42.572Z,42.45
2019-05-19T05:06:49.815Z,44.10
2019-05-19T05:07:55.524Z,43.83
2019-05-19T05:09:01.382Z,42.58
2019-05-19T05:10:07.820Z,41.00
2019-05-19T05:11:13.618Z,44.67
2019-05-19T05:12:18.659Z,41.92
2019-05-19T05:13:24.492Z,41.77
2019-05-19T05:14:30.039Z,42.58
2019-05-19T05:15:35.523Z,42.33
2019-05-19T05:16:40.558Z,42.27
2019-05-19T05:17:46.552Z,45.10
2019-05-19T05:18:51.505Z,42.98
2019-05-19T05:19:57.071Z,42.23
2019-05-19T05:21:02.007Z,43.48
2019-05-19T05:22:21.240Z,44.90
2019-05-19T05:23:14.248Z,39.65
2019-05-19T05:24:20.260Z,42.17
2019-05-19T05:25:25.263Z,42.55
2019-05-19T05:26:30.844Z,39.90
2019-05-19T05:27:36.059Z,40.48
2019-05-19T05:28:41.892Z,42.05
2019-05-19T05:29:46.910Z,41.23
2019-05-19T05:30:52.717Z,43.33
2019-05-19T05:31:58.068Z,42.83
2019-05-19T05:33:03.679Z,41.08
2019-05-19T05:34:08.757Z,41.10
2019-05-19T05:35:14.387Z,40.85
2019-05-19T05:36:19.523Z,44.63
2019-05-19T05:37:25.019Z,42.60
2019-05-19T05:38:30.005Z,38.40
2019-05-19T05:39:35.499Z,42.80
2019-05-19T05:40:40.676Z,41.33
2019-05-19T05:41:46.293Z,43.65
2019-05-19T05:42:51.512Z,41.68
2019-05-19T05:43:57.097Z,42.58
2019-05-19T05:45:02.286Z,40.78
2019-05-19T05:46:07.854Z,40.85
2019-05-19T05:47:13.027Z,42.50
2019-05-19T05:48:18.744Z,40.85
2019-05-19T05:49:23.671Z,40.70
2019-05-19T05:50:29.745Z,40.78
2019-05-19T05:51:35.044Z,40.78
2019-05-19T05:52:40.888Z,42.60
2019-05-19T05:53:45.907Z,40.25
2019-05-19T05:54:51.505Z,39.85
2019-05-19T05:55:56.807Z,41.13
2019-05-19T05:57:02.553Z,41.65
2019-05-19T05:58:07.568Z,39.98
2019-05-19T05:59:13.051Z,40.50
2019-05-19T06:00:19.431Z,38.67
2019-05-19T06:01:25.292Z,40.58
2019-05-19T06:02:30.308Z,38.33
2019-05-19T06:03:35.866Z,40.08
2019-05-19T06:04:41.131Z,39.83
2019-05-19T06:05:46.759Z,37.88
2019-05-19T06:06:51.708Z,40.50
2019-05-19T06:07:57.240Z,39.40
2019-05-19T06:09:02.532Z,40.83
2019-05-19T06:10:09.206Z,39.98
2019-05-19T06:11:14.585Z,38.83
2019-05-19T06:12:20.271Z,39.42
2019-05-19T06:13:25.301Z,41.05
2019-05-19T06:14:30.876Z,39.78
2019-05-19T06:15:36.128Z,39.30
2019-05-19T06:16:42.180Z,38.80
2019-05-19T06:17:47.183Z,38.25
2019-05-19T06:18:52.712Z,40.40
2019-05-19T06:19:57.687Z,38.05
2019-05-19T06:21:03.431Z,37.73
2019-05-19T06:33:40.117Z,38.67
2019-05-19T06:34:46.031Z,35.78
2019-05-19T06:35:51.158Z,36.93
2019-05-19T06:36:57.164Z,36.33
2019-05-19T06:38:02.905Z,37.88
2019-05-19T06:39:09.006Z,40.52
2019-05-19T06:40:14.267Z,39.70
2019-05-19T06:41:19.863Z,39.65
2019-05-19T06:42:24.792Z,36.98
2019-05-19T06:43:30.308Z,38.50
2019-05-19T06:44:35.196Z,39.00
2019-05-19T06:45:40.773Z,38.00
2019-05-19T06:46:45.707Z,38.33
2019-05-19T06:47:51.228Z,36.33
2019-05-19T06:48:56.464Z,37.67
2019-05-19T06:50:02.395Z,36.73
2019-05-19T06:51:07.400Z,37.88
2019-05-19T06:52:12.965Z,37.00
2019-05-19T06:53:18.252Z,37.33
2019-05-19T06:54:23.735Z,37.70
2019-05-19T06:55:28.724Z,36.50
2019-05-19T06:56:34.184Z,39.08
2019-05-19T06:57:39.112Z,38.95
2019-05-19T06:58:44.611Z,38.17
2019-05-19T06:59:49.584Z,36.93
2019-05-19T07:00:55.113Z,37.17
2019-05-19T07:02:00.090Z,38.60
2019-05-19T07:03:05.665Z,35.90
2019-05-19T07:04:10.673Z,38.28
2019-05-19T07:05:16.326Z,34.70
2019-05-19T07:06:21.566Z,36.65
2019-05-19T07:07:27.050Z,36.25
2019-05-19T07:08:32.464Z,37.50
2019-05-19T07:09:38.115Z,36.85
2019-05-19T07:10:43.207Z,35.40
2019-05-19T07:11:48.868Z,37.35
2019-05-19T07:12:54.053Z,34.60
2019-05-19T07:14:02.897Z,37.48
2019-05-19T07:15:07.504Z,35.55
2019-05-19T07:16:13.233Z,37.08
2019-05-19T07:17:18.157Z,37.08
2019-05-19T07:18:23.747Z,35.10
2019-05-19T07:19:28.798Z,38.02
2019-05-19T07:20:34.392Z,39.25
2019-05-19T07:21:39.666Z,37.45
2019-05-19T07:22:45.165Z,37.23
2019-05-19T07:23:50.167Z,36.98
2019-05-19T07:24:56.631Z,36.98
2019-05-19T07:26:01.593Z,35.88
2019-05-19T07:27:09.986Z,38.17
2019-05-19T07:28:15.244Z,37.63
2019-05-19T07:29:20.844Z,37.00
2019-05-19T07:30:26.169Z,35.28
2019-05-19T07:31:32.253Z,35.92
2019-05-19T07:32:37.259Z,34.45
2019-05-19T07:33:43.391Z,34.03
2019-05-19T07:34:48.654Z,36.58
2019-05-19T07:35:54.150Z,35.95
2019-05-19T07:36:59.418Z,34.65
2019-05-19T07:38:07.435Z,36.33
2019-05-19T07:39:12.024Z,36.00
2019-05-19T07:40:17.708Z,35.55
2019-05-19T07:41:22.652Z,35.90
2019-05-19T07:42:28.240Z,36.85
2019-05-19T07:43:33.471Z,34.48
2019-05-19T07:44:39.479Z,34.20
2019-05-19T07:45:44.736Z,35.50
2019-05-19T07:46:50.207Z,36.20
2019-05-19T07:47:55.255Z,36.70
2019-05-19T07:49:01.012Z,35.58
2019-05-19T07:50:06.008Z,36.80
2019-05-19T07:51:11.747Z,37.58
2019-05-19T07:52:16.734Z,36.80
2019-05-19T07:53:22.243Z,37.13
2019-05-19T07:54:27.474Z,37.25
2019-05-19T07:55:33.026Z,36.40
2019-05-19T07:56:37.949Z,37.83
2019-05-19T07:57:43.700Z,36.23
2019-05-19T07:58:48.707Z,37.28
2019-05-19T07:59:54.201Z,37.40
2019-05-19T08:00:59.267Z,36.80
2019-05-19T08:02:04.902Z,35.58
2019-05-19T08:03:09.912Z,35.35
2019-05-19T08:04:15.439Z,36.03
2019-05-19T08:05:20.498Z,37.55
2019-05-19T08:06:26.227Z,39.15
2019-05-19T08:07:31.523Z,37.98
2019-05-19T08:08:37.009Z,37.00
2019-05-19T08:09:42.263Z,37.88
2019-05-19T08:10:47.771Z,36.03
2019-05-19T08:11:52.765Z,35.95
2019-05-19T08:12:58.245Z,36.25
2019-05-19T08:14:03.335Z,35.95
2019-05-19T08:15:09.609Z,37.03
2019-05-19T08:16:14.608Z,36.80
2019-05-19T08:17:20.189Z,36.42
2019-05-19T08:18:25.624Z,35.92
2019-05-19T08:19:31.138Z,36.38
2019-05-19T08:20:36.188Z,37.10
2019-05-19T08:21:41.740Z,35.33
2019-05-19T08:22:46.781Z,36.08
2019-05-19T08:24:00.360Z,35.15
2019-05-19T08:24:59.915Z,36.05
2019-05-19T08:26:06.127Z,35.58
2019-05-19T08:27:11.149Z,34.58
2019-05-19T08:28:16.700Z,36.73
2019-05-19T08:29:21.944Z,37.78
2019-05-19T08:30:27.485Z,35.03
2019-05-19T08:31:33.072Z,35.13
2019-05-19T08:32:38.656Z,36.28
2019-05-19T08:33:43.869Z,33.90
2019-05-19T08:34:49.398Z,33.02
2019-05-19T08:35:54.435Z,33.95
2019-05-19T08:37:00.178Z,33.80
2019-05-19T08:38:05.211Z,33.55
2019-05-19T08:39:10.873Z,34.98
2019-05-19T08:40:16.307Z,35.23
2019-05-19T08:41:22.086Z,34.90
2019-05-19T08:42:27.018Z,36.35
2019-05-19T08:43:32.556Z,34.53
2019-05-19T08:44:37.750Z,36.60
2019-05-19T08:45:43.285Z,34.75
2019-05-19T08:46:48.317Z,34.27
2019-05-19T08:47:53.798Z,33.98
2019-05-19T08:48:58.727Z,33.08
2019-05-19T08:50:04.553Z,32.63
2019-05-19T08:51:09.824Z,33.78
2019-05-19T08:52:15.340Z,34.38
2019-05-19T08:53:20.336Z,33.75
2019-05-19T08:54:26.152Z,33.18
2019-05-19T08:55:31.167Z,30.57
2019-05-19T08:56:36.816Z,32.90
2019-05-19T08:57:41.823Z,33.60
2019-05-19T08:58:47.614Z,34.58
2019-05-19T08:59:52.640Z,31.25
2019-05-19T09:00:58.152Z,33.25
2019-05-19T09:02:03.142Z,33.25
2019-05-19T09:03:08.917Z,33.02
2019-05-19T09:04:13.840Z,32.88
2019-05-19T09:05:19.576Z,33.40
2019-05-19T09:06:24.634Z,31.55
2019-05-19T09:07:30.390Z,33.67
2019-05-19T09:08:35.658Z,31.75
2019-05-19T09:09:41.237Z,31.50
2019-05-19T09:10:46.355Z,29.98
2019-05-19T09:11:51.829Z,33.25
2019-05-19T09:12:57.282Z,29.57
2019-05-19T09:14:03.164Z,30.10
2019-05-19T09:15:08.728Z,27.35
2019-05-19T09:16:14.309Z,30.68
2019-05-19T09:17:19.268Z,26.80
2019-05-19T09:18:24.735Z,29.60
2019-05-19T09:19:29.860Z,29.95
2019-05-19T09:20:35.536Z,28.65
2019-05-19T09:21:40.527Z,32.42
2019-05-19T09:22:46.065Z,31.85
2019-05-19T09:23:51.514Z,30.00
2019-05-19T09:24:56.999Z,30.23
2019-05-19T09:26:01.976Z,28.02
2019-05-19T09:27:07.683Z,26.57
2019-05-19T09:28:12.704Z,26.37
2019-05-19T09:29:18.241Z,26.70
2019-05-19T09:30:23.264Z,23.45
2019-05-19T09:31:29.199Z,24.70
2019-05-19T09:32:34.243Z,24.98
2019-05-19T09:33:39.743Z,24.67
2019-05-19T09:34:44.680Z,24.98
2019-05-19T09:35:50.191Z,23.65
2019-05-19T09:36:55.187Z,23.27
2019-05-19T09:38:00.980Z,24.35
2019-05-19T09:39:07.131Z,25.85
2019-05-19T09:40:13.156Z,25.97
2019-05-19T09:41:18.093Z,22.50
2019-05-19T09:42:23.999Z,23.15
2019-05-19T09:43:28.975Z,23.25
2019-05-19T09:44:34.726Z,23.80
2019-05-19T09:45:39.653Z,24.35
2019-05-19T09:46:45.152Z,27.63
2019-05-19T09:47:50.348Z,26.42
2019-05-19T09:49:14.606Z,25.20
2019-05-19T09:50:19.972Z,24.90
2019-05-19T09:51:25.629Z,24.20
2019-05-19T09:52:30.681Z,26.55
2019-05-19T09:53:36.423Z,26.23
2019-05-19T09:54:45.466Z,22.98
2019-05-19T09:55:49.238Z,21.62
2019-05-19T09:56:54.181Z,19.25
2019-05-19T09:57:59.923Z,21.33
2019-05-19T09:59:05.019Z,18.47
2019-05-19T10:00:13.163Z,17.85
2019-05-19T10:01:18.097Z,17.73
2019-05-19T10:02:23.956Z,20.85
2019-05-19T10:03:28.880Z,19.80
2019-05-19T10:04:34.890Z,15.40
2019-05-19T10:05:40.092Z,17.35
2019-05-19T10:06:45.596Z,15.70
2019-05-19T10:07:50.780Z,14.90
2019-05-19T10:09:14.685Z,15.13
2019-05-19T10:10:22.969Z,16.20
2019-05-19T10:11:52.482Z,14.33
2019-05-19T10:12:57.426Z,13.85
2019-05-19T10:14:03.240Z,15.00
2019-05-19T10:15:09.053Z,14.63
2019-05-19T10:16:14.631Z,15.63
2019-05-19T10:17:20.049Z,16.83
2019-05-19T10:18:25.700Z,13.60
2019-05-19T10:19:30.866Z,14.25
2019-05-19T10:20:36.428Z,14.90
2019-05-19T10:21:41.461Z,14.90
2019-05-19T10:22:47.231Z,14.13
2019-05-19T10:23:52.164Z,16.00
2019-05-19T10:25:18.121Z,16.80
2019-05-19T10:26:04.463Z,13.38
2019-05-19T10:27:10.185Z,16.60
2019-05-19T10:28:15.252Z,15.87
2019-05-19T10:29:20.844Z,13.50
2019-05-19T10:30:25.841Z,13.63
2019-05-19T10:31:31.638Z,13.80
2019-05-19T10:32:37.281Z,15.87
2019-05-19T10:33:42.769Z,14.70
2019-05-19T10:34:47.712Z,14.03
2019-05-19T10:35:53.503Z,14.40
2019-05-19T10:36:58.671Z,16.23
2019-05-19T10:38:04.918Z,17.50
2019-05-19T10:39:09.951Z,18.17
2019-05-19T10:40:15.751Z,17.03
2019-05-19T10:41:20.833Z,16.27
2019-05-19T10:42:26.565Z,18.37
2019-05-19T10:43:31.772Z,17.57
2019-05-19T10:44:37.319Z,17.77
2019-05-19T10:45:44.004Z,15.57
2019-05-19T10:46:49.624Z,17.53
2019-05-19T10:47:54.577Z,16.60
2019-05-19T10:49:00.299Z,15.30
2019-05-19T10:50:05.361Z,15.77
2019-05-19T10:51:11.255Z,16.23
2019-05-19T10:52:16.876Z,14.97
2019-05-19T10:53:22.597Z,14.90
2019-05-19T10:54:27.603Z,15.57
2019-05-19T10:55:36.636Z,13.77
2019-05-19T10:56:39.912Z,15.10
2019-05-19T10:57:45.434Z,14.53
2019-05-19T10:58:50.445Z,14.47
2019-05-19T10:59:55.938Z,13.63
2019-05-19T11:01:00.921Z,14.68
2019-05-19T11:02:06.560Z,12.33
2019-05-19T11:03:11.556Z,14.30
2019-05-19T11:04:17.289Z,12.50
2019-05-19T11:05:22.578Z,13.73
2019-05-19T11:06:28.064Z,14.50
2019-05-19T11:07:33.255Z,12.53
2019-05-19T11:08:39.002Z,16.67
2019-05-19T11:09:44.504Z,17.67
2019-05-19T11:10:50.091Z,15.60
2019-05-19T11:11:55.072Z,14.83
2019-05-19T11:13:00.578Z,14.80
2019-05-19T11:14:05.659Z,15.00
2019-05-19T11:15:11.420Z,14.60
2019-05-19T11:16:16.476Z,14.03
2019-05-19T11:17:22.000Z,12.63
2019-05-19T11:18:27.297Z,13.00
2019-05-19T11:19:32.985Z,13.00
2019-05-19T11:20:38.516Z,11.93
2019-05-19T11:21:44.337Z,14.13
2019-05-19T11:22:49.257Z,13.00
2019-05-19T11:23:55.172Z,15.47
2019-05-19T11:25:00.422Z,14.43
2019-05-19T11:26:06.303Z,14.00
2019-05-19T11:27:11.553Z,15.10
2019-05-19T11:28:17.060Z,12.83
2019-05-19T11:29:22.304Z,13.23
2019-05-19T11:30:27.848Z,13.60
2019-05-19T11:31:33.139Z,12.83
2019-05-19T11:32:38.894Z,13.57
2019-05-19T11:33:43.827Z,12.90
2019-05-19T11:34:49.342Z,12.67
2019-05-19T11:35:54.302Z,12.63
2019-05-19T11:36:59.901Z,13.87
2019-05-19T11:38:05.147Z,13.07
2019-05-19T11:39:11.004Z,15.53
2019-05-19T11:40:16.055Z,14.03
2019-05-19T11:41:21.585Z,13.87
2019-05-19T11:42:26.509Z,13.50
2019-05-19T11:43:32.228Z,14.00
2019-05-19T11:44:37.406Z,13.30
2019-05-19T11:45:43.212Z,13.47
2019-05-19T11:46:48.186Z,14.40
2019-05-19T11:47:53.803Z,14.40
2019-05-19T11:48:59.037Z,13.67
2019-05-19T11:50:05.126Z,12.97
2019-05-19T11:51:10.139Z,14.20
2019-05-19T11:52:16.178Z,15.20
2019-05-19T11:53:21.624Z,15.20
2019-05-19T11:54:27.121Z,17.20
2019-05-19T11:55:32.525Z,15.90
2019-05-19T11:56:38.352Z,15.03
2019-05-19T11:57:43.317Z,16.17
2019-05-19T11:58:48.826Z,14.93
2019-05-19T11:59:54.316Z,14.40
2019-05-19T12:01:00.275Z,14.17
2019-05-19T12:02:05.275Z,14.63
2019-05-19T12:03:10.815Z,15.80
2019-05-19T12:04:15.758Z,16.77
2019-05-19T12:05:21.373Z,13.80
2019-05-19T12:06:38.535Z,15.07
2019-05-19T12:07:34.047Z,16.97
2019-05-19T12:08:39.306Z,15.43
2019-05-19T12:09:45.121Z,15.47
2019-05-19T12:10:50.088Z,15.07
2019-05-19T12:11:55.589Z,13.23
2019-05-19T12:13:00.685Z,15.20
2019-05-19T12:14:06.308Z,14.00
2019-05-19T12:15:11.763Z,12.30
2019-05-19T12:16:17.394Z,13.53
2019-05-19T12:17:22.738Z,12.63
2019-05-19T12:18:28.344Z,12.87
2019-05-19T12:19:33.365Z,13.50
2019-05-19T12:20:38.898Z,13.27
2019-05-19T12:21:44.243Z,14.60
2019-05-19T12:22:49.803Z,13.73
2019-05-19T12:23:55.077Z,14.50
2019-05-19T12:25:00.657Z,13.70
2019-05-19T12:26:06.904Z,12.93
2019-05-19T12:27:12.884Z,13.27
2019-05-19T12:28:18.065Z,14.30
2019-05-19T12:29:23.547Z,14.23
2019-05-19T12:30:28.628Z,11.80
2019-05-19T12:31:34.161Z,10.73
2019-05-19T12:32:39.449Z,12.00
2019-05-19T12:33:51.977Z,10.77
2019-05-19T12:34:51.897Z,12.23
2019-05-19T12:35:57.791Z,14.27
2019-05-19T12:37:02.695Z,12.97
2019-05-19T12:38:08.230Z,11.57
2019-05-19T12:39:13.494Z,10.20
2019-05-19T12:40:22.475Z,11.00
2019-05-19T12:41:25.813Z,10.67
2019-05-19T12:42:31.271Z,10.03
2019-05-19T12:43:36.281Z,9.90
2019-05-19T12:44:41.861Z,11.43
2019-05-19T12:45:46.800Z,10.43
2019-05-19T12:46:52.275Z,11.50
2019-05-19T12:47:57.433Z,10.03
2019-05-19T12:49:03.005Z,10.70
2019-05-19T12:50:08.513Z,10.23
2019-05-19T12:51:14.088Z,11.63
2019-05-19T12:52:19.142Z,10.57
2019-05-19T12:53:24.735Z,10.83
2019-05-19T12:54:30.164Z,9.50
2019-05-19T12:55:35.711Z,8.83
2019-05-19T12:56:40.947Z,8.43
2019-05-19T12:57:46.507Z,9.30
2019-05-19T12:58:51.509Z,7.70
2019-05-19T12:59:57.060Z,8.10
2019-05-19T13:01:01.997Z,8.30
2019-05-19T13:02:07.803Z,8.63
2019-05-19T13:03:12.714Z,7.77
2019-05-19T13:04:19.014Z,7.70
2019-05-19T13:05:24.027Z,6.57
2019-05-19T13:06:30.159Z,6.87
2019-05-19T13:07:35.179Z,6.57
2019-05-19T13:08:40.775Z,6.90
2019-05-19T13:09:46.031Z,6.73
2019-05-19T13:10:51.510Z,6.53
2019-05-19T13:11:56.667Z,6.57
2019-05-19T13:13:02.489Z,7.10
2019-05-19T13:14:07.609Z,7.10
2019-05-19T13:15:15.577Z,6.37
2019-05-19T13:16:20.073Z,6.87
2019-05-19T13:17:25.656Z,6.57
2019-05-19T13:18:30.849Z,7.20
2019-05-19T13:19:36.587Z,6.60
2019-05-19T13:20:41.533Z,6.50
2019-05-19T13:21:47.255Z,7.10
2019-05-19T13:22:52.154Z,6.27
2019-05-19T13:23:58.425Z,6.10
2019-05-19T13:25:03.439Z,6.60
2019-05-19T13:26:09.061Z,6.53
2019-05-19T13:27:14.016Z,6.77
2019-05-19T13:30:35.456Z,6.60
2019-05-19T13:31:40.984Z,7.53
2019-05-19T13:32:45.923Z,6.70
2019-05-19T13:33:51.608Z,7.90
2019-05-19T13:34:56.782Z,7.50
2019-05-19T13:36:02.322Z,7.47
2019-05-19T13:37:07.361Z,7.77
2019-05-19T13:38:13.070Z,7.13
2019-05-19T13:39:18.192Z,6.30
2019-05-19T13:40:23.820Z,6.60
2019-05-19T13:41:29.007Z,7.30
2019-05-19T13:42:34.443Z,6.57
2019-05-19T13:43:39.405Z,6.33
2019-05-19T13:44:45.098Z,7.60
2019-05-19T13:45:50.018Z,7.10
2019-05-19T13:46:55.715Z,6.70
2019-05-19T13:48:00.855Z,6.33
2019-05-19T13:49:06.368Z,6.60
2019-05-19T13:50:11.719Z,7.10
2019-05-19T13:51:17.167Z,6.57
2019-05-19T13:52:22.051Z,7.47
2019-05-19T13:53:27.743Z,7.50
2019-05-19T13:54:32.728Z,6.60
2019-05-19T13:55:38.497Z,6.67
2019-05-19T13:56:43.650Z,7.17
2019-05-19T13:57:49.178Z,6.90
2019-05-19T13:58:54.164Z,5.97
2019-05-19T13:59:59.857Z,6.57
2019-05-19T14:01:05.270Z,6.43
2019-05-19T14:02:10.791Z,6.10
2019-05-19T14:03:15.859Z,4.87
2019-05-19T14:04:21.320Z,6.40
2019-05-19T14:05:26.248Z,5.43
2019-05-19T14:06:31.826Z,5.00
2019-05-19T14:07:37.056Z,5.63
2019-05-19T14:08:42.772Z,4.87
2019-05-19T14:09:47.678Z,5.00
2019-05-19T14:10:53.145Z,5.23
2019-05-19T14:11:58.170Z,5.00
2019-05-19T14:13:03.714Z,4.17
2019-05-19T14:14:08.694Z,4.03
2019-05-19T14:15:14.665Z,4.87
2019-05-19T14:16:19.917Z,4.40
2019-05-19T14:17:25.452Z,3.80
2019-05-19T14:18:30.399Z,3.50
2019-05-19T14:19:35.909Z,4.80
2019-05-19T14:20:41.170Z,4.63
2019-05-19T14:21:46.791Z,5.90
2019-05-19T14:22:51.760Z,4.70
2019-05-19T14:23:57.230Z,3.77
2019-05-19T14:25:02.309Z,4.20
2019-05-19T14:26:07.991Z,4.00
2019-05-19T14:27:17.146Z,4.10
2019-05-19T14:28:20.408Z,4.30
2019-05-19T14:29:25.400Z,4.13
2019-05-19T14:30:30.906Z,4.13
2019-05-19T14:31:36.055Z,3.80
2019-05-19T14:32:41.550Z,3.75
2019-05-19T14:33:46.471Z,4.23
2019-05-19T14:34:52.168Z,4.47
2019-05-19T14:35:57.357Z,4.10
2019-05-19T14:37:02.926Z,3.40
2019-05-19T14:38:08.064Z,3.45
2019-05-19T14:39:13.550Z,3.83
2019-05-19T14:40:20.329Z,3.72
2019-05-19T14:41:33.144Z,4.07
2019-05-19T14:43:00.627Z,3.08
2019-05-19T14:44:05.786Z,3.45